createdAt,value
2023-03-13T00:01:32.454Z,578
2023-03-13T00:02:32.181Z,578
2023-03-13T00:03:32.182Z,578
2023-03-13T00:04:32.226Z,578
2023-03-13T00:06:32.483Z,578
2023-03-13T00:07:32.171Z,588
2023-03-13T00:08:32.170Z,588
2023-03-13T00:09:32.152Z,588
2023-03-13T00:11:32.480Z,588
2023-03-13T00:12:32.186Z,588
2023-03-13T00:13:32.191Z,588
2023-03-13T00:14:32.189Z,588
2023-03-13T00:16:32.524Z,588
2023-03-13T00:17:32.288Z,549
2023-03-13T00:18:32.204Z,549
2023-03-13T00:19:32.204Z,549
2023-03-13T00:21:32.452Z,549
2023-03-13T00:22:32.204Z,556
2023-03-13T00:23:32.189Z,556
2023-03-13T00:24:32.285Z,556
2023-03-13T00:26:32.484Z,556
2023-03-13T00:27:32.307Z,549
2023-03-13T00:28:32.781Z,549
2023-03-13T00:29:32.184Z,549
2023-03-13T00:31:32.519Z,549
2023-03-13T00:32:32.194Z,588
2023-03-13T00:33:32.304Z,588
2023-03-13T00:34:32.162Z,588
2023-03-13T00:36:32.461Z,588
2023-03-13T00:37:32.166Z,588
2023-03-13T00:38:32.195Z,588
2023-03-13T00:39:32.160Z,588
2023-03-13T00:41:32.459Z,588
2023-03-13T00:42:32.191Z,638
2023-03-13T00:43:32.160Z,638
2023-03-13T00:44:32.192Z,638
2023-03-13T00:46:32.533Z,638
2023-03-13T00:47:32.285Z,569
2023-03-13T00:48:32.283Z,569
2023-03-13T00:49:32.305Z,569
2023-03-13T00:51:32.413Z,569
2023-03-13T00:52:32.292Z,602
2023-03-13T00:53:32.299Z,602
2023-03-13T00:54:32.287Z,602
2023-03-13T00:56:32.499Z,602
2023-03-13T00:57:32.315Z,596
2023-03-13T00:58:32.289Z,596
2023-03-13T00:59:32.284Z,596
2023-03-13T01:01:32.471Z,596
2023-03-13T01:02:32.363Z,578
2023-03-13T01:03:32.206Z,578
2023-03-13T01:04:32.202Z,578
2023-03-13T01:06:32.488Z,578
2023-03-13T01:07:32.202Z,621
2023-03-13T01:08:32.326Z,621
2023-03-13T01:09:32.296Z,621
2023-03-13T01:11:32.511Z,621
2023-03-13T01:12:32.301Z,606
2023-03-13T01:13:32.309Z,606
2023-03-13T01:14:32.298Z,606
2023-03-13T01:16:32.434Z,606
2023-03-13T01:17:32.201Z,621
2023-03-13T01:18:32.218Z,621
2023-03-13T01:19:32.230Z,621
2023-03-13T01:21:32.484Z,621
2023-03-13T01:22:32.216Z,612
2023-03-13T01:23:32.213Z,612
2023-03-13T01:24:32.217Z,612
2023-03-13T01:26:32.487Z,612
2023-03-13T01:27:32.182Z,595
2023-03-13T01:28:32.206Z,595
2023-03-13T01:29:32.227Z,595
2023-03-13T01:31:32.590Z,595
2023-03-13T01:32:32.217Z,571
2023-03-13T01:33:32.198Z,571
2023-03-13T01:34:32.221Z,571
2023-03-13T01:36:32.483Z,571
2023-03-13T01:37:32.187Z,539
2023-03-13T01:38:32.216Z,539
2023-03-13T01:39:32.320Z,539
2023-03-13T01:41:32.551Z,539
2023-03-13T01:42:32.220Z,546
2023-03-13T01:43:32.215Z,546
2023-03-13T01:44:32.214Z,546
2023-03-13T01:46:32.512Z,546
2023-03-13T01:47:32.200Z,529
2023-03-13T01:48:32.245Z,529
2023-03-13T01:49:32.194Z,529
2023-03-13T01:51:32.491Z,529
2023-03-13T01:52:32.233Z,595
2023-03-13T01:53:32.199Z,595
2023-03-13T01:54:32.253Z,595
2023-03-13T01:56:32.499Z,595
2023-03-13T01:57:32.195Z,579
2023-03-13T01:58:32.222Z,579
2023-03-13T01:59:32.229Z,579
2023-03-13T02:01:32.579Z,579
2023-03-13T02:02:32.224Z,553
2023-03-13T02:03:32.315Z,553
2023-03-13T02:04:32.223Z,553
2023-03-13T02:06:32.528Z,553
2023-03-13T02:07:32.211Z,548
2023-03-13T02:08:32.219Z,548
2023-03-13T02:09:32.206Z,548
2023-03-13T02:11:32.501Z,548
2023-03-13T02:12:32.210Z,557
2023-03-13T02:13:32.240Z,557
2023-03-13T02:14:32.202Z,557
2023-03-13T02:16:32.500Z,557
2023-03-13T02:17:32.230Z,535
2023-03-13T02:18:32.264Z,535
2023-03-13T02:19:32.261Z,535
2023-03-13T02:21:32.502Z,535
2023-03-13T02:22:32.224Z,503
2023-03-13T02:23:32.232Z,503
2023-03-13T02:24:32.253Z,503
2023-03-13T02:26:32.496Z,503
2023-03-13T02:27:32.238Z,535
2023-03-13T02:28:32.243Z,535
2023-03-13T02:29:32.250Z,535
2023-03-13T02:31:32.530Z,535
2023-03-13T02:32:32.314Z,596
2023-03-13T02:33:32.245Z,596
2023-03-13T02:34:32.257Z,596
2023-03-13T02:36:32.527Z,596
2023-03-13T02:37:32.246Z,552
2023-03-13T02:38:32.238Z,552
2023-03-13T02:39:32.256Z,552
2023-03-13T02:41:32.533Z,552
2023-03-13T02:42:32.240Z,541
2023-03-13T02:43:32.242Z,541
2023-03-13T02:44:32.252Z,541
2023-03-13T02:46:32.589Z,541
2023-03-13T02:47:32.274Z,530
2023-03-13T02:48:32.262Z,530
2023-03-13T02:49:32.257Z,530
2023-03-13T02:51:32.531Z,530
2023-03-13T02:52:32.252Z,535
2023-03-13T02:53:32.348Z,535
2023-03-13T02:54:32.254Z,535
2023-03-13T02:56:32.543Z,535
2023-03-13T02:57:32.228Z,577
2023-03-13T02:58:33.659Z,577
2023-03-13T02:59:32.221Z,577
2023-03-13T03:01:32.518Z,577
2023-03-13T03:02:32.243Z,541
2023-03-13T03:03:32.241Z,541
2023-03-13T03:04:32.246Z,541
2023-03-13T03:06:32.541Z,541
2023-03-13T03:07:32.225Z,548
2023-03-13T03:08:32.233Z,548
2023-03-13T03:09:32.224Z,548
2023-03-13T03:11:32.525Z,548
2023-03-13T03:12:32.236Z,519
2023-03-13T03:13:32.233Z,519
2023-03-13T03:14:32.239Z,519
2023-03-13T03:16:32.581Z,519
2023-03-13T03:17:32.253Z,561
2023-03-13T03:18:34.276Z,561
2023-03-13T03:19:32.253Z,561
2023-03-13T03:21:32.520Z,561
2023-03-13T03:22:32.249Z,568
2023-03-13T03:23:32.252Z,568
2023-03-13T03:24:32.245Z,568
2023-03-13T03:26:32.557Z,568
2023-03-13T03:27:32.394Z,543
2023-03-13T03:28:32.343Z,543
2023-03-13T03:29:32.369Z,543
2023-03-13T03:31:32.563Z,543
2023-03-13T03:32:32.415Z,575
2023-03-13T03:33:32.382Z,575
2023-03-13T03:34:32.350Z,575
2023-03-13T03:36:32.573Z,575
2023-03-13T03:37:32.378Z,551
2023-03-13T03:38:32.357Z,551
2023-03-13T03:39:32.401Z,551
2023-03-13T03:41:32.521Z,551
2023-03-13T03:42:32.352Z,519
2023-03-13T03:43:32.358Z,519
2023-03-13T03:44:32.364Z,519
2023-03-13T03:46:32.545Z,519
2023-03-13T03:47:32.390Z,556
2023-03-13T03:48:32.354Z,556
2023-03-13T03:49:32.354Z,556
2023-03-13T03:51:32.522Z,556
2023-03-13T03:52:32.351Z,571
2023-03-13T03:53:32.370Z,571
2023-03-13T03:54:32.242Z,571
2023-03-13T03:56:32.564Z,571
2023-03-13T03:57:32.247Z,579
2023-03-13T03:58:32.257Z,579
2023-03-13T03:59:32.241Z,579
2023-03-13T04:01:32.536Z,579
2023-03-13T04:02:32.315Z,571
2023-03-13T04:03:32.289Z,571
2023-03-13T04:04:32.254Z,571
2023-03-13T04:06:32.552Z,571
2023-03-13T04:07:32.274Z,603
2023-03-13T04:08:32.244Z,603
2023-03-13T04:09:32.357Z,603
2023-03-13T04:11:32.542Z,603
2023-03-13T04:12:32.254Z,552
2023-03-13T04:13:32.260Z,552
2023-03-13T04:14:32.391Z,552
2023-03-13T04:16:32.668Z,552
2023-03-13T04:17:32.259Z,579
2023-03-13T04:18:32.246Z,579
2023-03-13T04:19:32.259Z,579
2023-03-13T04:21:32.577Z,579
2023-03-13T04:22:32.307Z,571
2023-03-13T04:23:32.277Z,571
2023-03-13T04:24:32.289Z,571
2023-03-13T04:26:32.575Z,571
2023-03-13T04:27:32.349Z,643
2023-03-13T04:28:32.286Z,643
2023-03-13T04:29:32.290Z,643
2023-03-13T04:31:32.549Z,643
2023-03-13T04:32:32.328Z,603
2023-03-13T04:33:32.304Z,603
2023-03-13T04:34:32.305Z,603
2023-03-13T04:36:32.575Z,603
2023-03-13T04:37:32.290Z,629
2023-03-13T04:38:32.288Z,629
2023-03-13T04:39:33.177Z,629
2023-03-13T04:41:32.582Z,629
2023-03-13T04:42:32.293Z,629
2023-03-13T04:43:32.292Z,629
2023-03-13T04:44:32.288Z,629
2023-03-13T04:46:32.622Z,629
2023-03-13T04:47:32.298Z,620
2023-03-13T04:48:32.289Z,620
2023-03-13T04:49:32.376Z,620
2023-03-13T04:51:32.554Z,620
2023-03-13T04:52:32.295Z,620
2023-03-13T04:53:32.382Z,620
2023-03-13T04:54:32.402Z,620
2023-03-13T04:56:41.988Z,620
2023-03-13T04:57:32.391Z,579
2023-03-13T04:58:32.397Z,579
2023-03-13T04:59:32.385Z,579
2023-03-13T05:01:32.674Z,579
2023-03-13T05:02:32.285Z,571
2023-03-13T05:03:32.282Z,571
2023-03-13T05:04:32.398Z,571
2023-03-13T05:06:32.569Z,571
2023-03-13T05:07:32.298Z,589
2023-03-13T05:08:32.321Z,589
2023-03-13T05:09:32.293Z,589
2023-03-13T05:11:32.518Z,589
2023-03-13T05:12:32.405Z,589
2023-03-13T05:13:32.399Z,589
2023-03-13T05:14:32.290Z,589
2023-03-13T05:16:32.563Z,589
2023-03-13T05:17:32.286Z,612
2023-03-13T05:18:32.268Z,612
2023-03-13T05:19:32.276Z,612
2023-03-13T05:21:32.577Z,612
2023-03-13T05:22:32.300Z,565
2023-03-13T05:23:32.271Z,565
2023-03-13T05:24:32.291Z,565
2023-03-13T05:26:32.569Z,565
2023-03-13T05:27:32.324Z,565
2023-03-13T05:28:32.305Z,565
2023-03-13T05:29:32.419Z,565
2023-03-13T05:31:32.605Z,565
2023-03-13T05:32:32.297Z,579
2023-03-13T05:33:32.279Z,579
2023-03-13T05:34:32.296Z,579
2023-03-13T05:36:32.587Z,579
2023-03-13T05:37:32.282Z,603
2023-03-13T05:38:32.286Z,603
2023-03-13T05:39:32.279Z,603
2023-03-13T05:41:32.575Z,603
2023-03-13T05:42:32.278Z,579
2023-03-13T05:43:32.288Z,579
2023-03-13T05:44:32.309Z,579
2023-03-13T05:46:32.652Z,579
2023-03-13T05:47:32.402Z,588
2023-03-13T05:48:32.321Z,588
2023-03-13T05:49:32.409Z,588
2023-03-13T05:51:32.580Z,588
2023-03-13T05:52:32.321Z,595
2023-03-13T05:53:32.342Z,595
2023-03-13T05:54:32.330Z,595
2023-03-13T05:56:32.604Z,595
2023-03-13T05:57:32.278Z,561
2023-03-13T05:58:32.304Z,561
2023-03-13T05:59:32.275Z,561
2023-03-13T06:01:32.582Z,561
2023-03-13T06:02:32.318Z,602
2023-03-13T06:03:32.404Z,602
2023-03-13T06:04:32.467Z,602
2023-03-13T06:06:32.581Z,602
2023-03-13T06:07:32.330Z,571
2023-03-13T06:08:32.339Z,571
2023-03-13T06:09:32.298Z,571
2023-03-13T06:11:32.601Z,571
2023-03-13T06:12:32.283Z,579
2023-03-13T06:13:32.312Z,579
2023-03-13T06:14:32.286Z,579
2023-03-13T06:16:32.635Z,579
2023-03-13T06:17:32.312Z,546
2023-03-13T06:18:32.326Z,546
2023-03-13T06:19:32.316Z,546
2023-03-13T06:21:32.615Z,546
2023-03-13T06:22:32.387Z,571
2023-03-13T06:23:32.317Z,571
2023-03-13T06:24:32.285Z,571
2023-03-13T06:26:32.576Z,571
2023-03-13T06:27:32.572Z,552
2023-03-13T06:28:32.317Z,552
2023-03-13T06:29:32.350Z,552
2023-03-13T06:31:32.679Z,552
2023-03-13T06:32:32.546Z,531
2023-03-13T06:33:32.334Z,531
2023-03-13T06:34:32.310Z,531
2023-03-13T06:36:32.665Z,531
2023-03-13T06:37:32.293Z,515
2023-03-13T06:38:32.398Z,515
2023-03-13T06:39:32.440Z,515
2023-03-13T06:41:32.616Z,515
2023-03-13T06:42:32.304Z,539
2023-03-13T06:43:32.312Z,539
2023-03-13T06:44:32.296Z,539
2023-03-13T06:46:32.611Z,539
2023-03-13T06:47:32.328Z,546
2023-03-13T06:48:32.300Z,546
2023-03-13T06:49:32.314Z,546
2023-03-13T06:51:32.597Z,546
2023-03-13T06:52:42.968Z,505
2023-03-13T06:53:32.325Z,505
2023-03-13T06:54:32.302Z,505
2023-03-13T06:56:32.656Z,505
2023-03-13T06:57:32.468Z,539
2023-03-13T06:58:33.090Z,539
2023-03-13T06:59:32.448Z,539
2023-03-13T07:01:32.592Z,539
2023-03-13T07:02:32.328Z,539
2023-03-13T07:03:32.379Z,539
2023-03-13T07:04:32.442Z,539
2023-03-13T07:06:32.626Z,539
2023-03-13T07:07:32.408Z,498
2023-03-13T07:08:32.332Z,498
2023-03-13T07:09:32.423Z,498
2023-03-13T07:11:32.610Z,498
2023-03-13T07:12:32.318Z,505
2023-03-13T07:13:32.328Z,505
2023-03-13T07:14:32.304Z,505
2023-03-13T07:16:32.723Z,505
2023-03-13T07:17:32.387Z,498
2023-03-13T07:18:32.448Z,498
2023-03-13T07:19:32.340Z,498
2023-03-13T07:21:32.611Z,498
2023-03-13T07:22:32.312Z,480
2023-03-13T07:23:32.353Z,480
2023-03-13T07:24:32.358Z,480
2023-03-13T07:26:32.648Z,480
2023-03-13T07:27:32.355Z,473
2023-03-13T07:28:32.357Z,473
2023-03-13T07:29:32.310Z,473
2023-03-13T07:31:32.732Z,473
2023-03-13T07:32:32.420Z,465
2023-03-13T07:33:32.363Z,465
2023-03-13T07:34:32.347Z,465
2023-03-13T07:36:32.676Z,465
2023-03-13T07:37:32.371Z,492
2023-03-13T07:38:32.398Z,492
2023-03-13T07:39:32.368Z,492
2023-03-13T07:41:32.679Z,492
2023-03-13T07:42:32.355Z,498
2023-03-13T07:43:32.365Z,498
2023-03-13T07:44:32.375Z,498
2023-03-13T07:46:32.640Z,498
2023-03-13T07:47:32.385Z,480
2023-03-13T07:48:32.394Z,480
2023-03-13T07:49:32.384Z,480
2023-03-13T07:51:42.771Z,480
2023-03-13T07:52:32.357Z,459
2023-03-13T07:53:32.502Z,459
2023-03-13T07:54:32.443Z,459
2023-03-13T07:56:32.639Z,459
2023-03-13T07:57:32.492Z,473
2023-03-13T07:58:32.476Z,473
2023-03-13T07:59:32.468Z,473
2023-03-13T08:01:32.625Z,473
2023-03-13T08:02:32.494Z,439
2023-03-13T08:03:32.381Z,439
2023-03-13T08:04:32.339Z,439
2023-03-13T08:06:33.849Z,439
2023-03-13T08:07:32.355Z,439
2023-03-13T08:08:32.343Z,439
2023-03-13T08:09:32.456Z,439
2023-03-13T08:11:32.680Z,439
2023-03-13T08:12:32.449Z,465
2023-03-13T08:13:32.464Z,465
2023-03-13T08:14:32.469Z,465
2023-03-13T08:16:32.667Z,465
2023-03-13T08:17:32.379Z,409
2023-03-13T08:18:32.331Z,409
2023-03-13T08:19:32.460Z,409
2023-03-13T08:21:32.646Z,409
2023-03-13T08:22:32.419Z,409
2023-03-13T08:23:32.359Z,409
2023-03-13T08:24:32.376Z,409
2023-03-13T08:26:32.668Z,409
2023-03-13T08:27:32.345Z,450
2023-03-13T08:28:32.361Z,450
2023-03-13T08:29:32.339Z,450
2023-03-13T08:31:32.677Z,450
2023-03-13T08:32:32.520Z,415
2023-03-13T08:33:32.464Z,415
2023-03-13T08:34:32.494Z,415
2023-03-13T08:36:32.654Z,415
2023-03-13T08:37:32.512Z,415
2023-03-13T08:38:32.489Z,415
2023-03-13T08:39:32.497Z,415
2023-03-13T08:41:32.660Z,415
2023-03-13T08:42:32.442Z,420
2023-03-13T08:43:32.366Z,420
2023-03-13T08:44:32.457Z,420
2023-03-13T08:46:32.704Z,420
2023-03-13T08:47:32.361Z,400
2023-03-13T08:48:32.389Z,400
2023-03-13T08:49:32.349Z,400
2023-03-13T08:51:32.662Z,400
2023-03-13T08:52:32.388Z,426
2023-03-13T08:53:32.425Z,426
2023-03-13T08:54:32.375Z,426
2023-03-13T08:56:32.669Z,426
2023-03-13T08:57:32.398Z,434
2023-03-13T08:58:32.359Z,434
2023-03-13T08:59:32.376Z,434
2023-03-13T09:01:32.683Z,434
2023-03-13T09:02:32.455Z,400
2023-03-13T09:03:32.463Z,400
2023-03-13T09:04:32.398Z,400
2023-03-13T09:06:32.679Z,400
2023-03-13T09:07:32.419Z,400
2023-03-13T09:08:32.411Z,400
2023-03-13T09:09:32.431Z,400
2023-03-13T09:11:32.660Z,400
2023-03-13T09:12:32.403Z,400
2023-03-13T09:13:32.431Z,400
2023-03-13T09:14:32.405Z,400
2023-03-13T09:16:32.693Z,400
2023-03-13T09:17:32.398Z,400
2023-03-13T09:18:32.557Z,400
2023-03-13T09:19:32.411Z,400
2023-03-13T09:21:32.688Z,400
2023-03-13T09:22:32.377Z,423
2023-03-13T09:23:32.393Z,423
2023-03-13T09:24:32.376Z,423
2023-03-13T09:26:32.762Z,423
2023-03-13T09:27:32.429Z,417
2023-03-13T09:28:32.413Z,417
2023-03-13T09:29:32.371Z,417
2023-03-13T09:31:32.701Z,417
2023-03-13T09:32:32.494Z,445
2023-03-13T09:33:32.388Z,445
2023-03-13T09:34:32.527Z,445
2023-03-13T09:36:32.666Z,445
2023-03-13T09:37:32.400Z,433
2023-03-13T09:38:32.395Z,433
2023-03-13T09:39:32.373Z,433
2023-03-13T09:41:32.671Z,433
2023-03-13T09:42:32.401Z,433
2023-03-13T09:43:32.377Z,433
2023-03-13T09:44:32.436Z,433
2023-03-13T09:46:32.762Z,433
2023-03-13T09:47:32.372Z,400
2023-03-13T09:48:32.516Z,400
2023-03-13T09:49:32.400Z,400
2023-03-13T09:51:32.667Z,400
2023-03-13T09:52:32.404Z,411
2023-03-13T09:53:32.411Z,411
2023-03-13T09:54:32.414Z,411
2023-03-13T09:56:32.672Z,411
2023-03-13T09:57:32.398Z,400
2023-03-13T09:58:32.378Z,400
2023-03-13T09:59:32.400Z,400
2023-03-13T10:01:32.757Z,400
2023-03-13T10:02:32.390Z,400
2023-03-13T10:03:32.398Z,400
2023-03-13T10:04:32.437Z,414
2023-03-13T10:06:32.712Z,400
2023-03-13T10:07:32.400Z,400
2023-03-13T10:08:32.419Z,400
2023-03-13T10:09:32.422Z,400
2023-03-13T10:11:32.696Z,400
2023-03-13T10:12:32.382Z,413
2023-03-13T10:13:32.418Z,413
2023-03-13T10:14:32.435Z,413
2023-03-13T10:16:32.724Z,413
2023-03-13T10:17:32.416Z,401
2023-03-13T10:18:32.436Z,401
2023-03-13T10:19:32.436Z,401
2023-03-13T10:21:32.707Z,401
2023-03-13T10:22:32.392Z,400
2023-03-13T10:23:32.412Z,400
2023-03-13T10:24:32.388Z,400
2023-03-13T10:26:32.689Z,400
2023-03-13T10:27:32.430Z,419
2023-03-13T10:28:32.529Z,419
2023-03-13T10:29:32.437Z,419
2023-03-13T10:31:32.761Z,419
2023-03-13T10:32:32.466Z,406
2023-03-13T10:33:32.414Z,407
2023-03-13T10:34:32.442Z,406
2023-03-13T10:36:32.714Z,406
2023-03-13T10:37:32.420Z,406
2023-03-13T10:38:32.511Z,406
2023-03-13T10:39:32.437Z,406
2023-03-13T10:41:32.737Z,406
2023-03-13T10:42:32.435Z,426
2023-03-13T10:43:32.446Z,426
2023-03-13T10:44:32.421Z,426
2023-03-13T10:46:32.797Z,426
2023-03-13T10:47:32.435Z,435
2023-03-13T10:48:32.536Z,435
2023-03-13T10:49:32.478Z,435
2023-03-13T10:51:32.726Z,435
2023-03-13T10:52:32.423Z,426
2023-03-13T10:53:32.513Z,426
2023-03-13T10:54:32.538Z,426
2023-03-13T10:56:32.717Z,426
2023-03-13T10:57:32.539Z,436
2023-03-13T10:58:32.440Z,436
2023-03-13T10:59:32.503Z,436
2023-03-13T11:01:32.732Z,436
2023-03-13T11:02:32.647Z,487
2023-03-13T11:03:32.621Z,487
2023-03-13T11:04:32.430Z,487
2023-03-13T11:06:32.751Z,487
2023-03-13T11:07:32.511Z,426
2023-03-13T11:08:32.553Z,426
2023-03-13T11:09:32.534Z,426
2023-03-13T11:11:32.769Z,426
2023-03-13T11:12:32.546Z,400
2023-03-13T11:13:36.817Z,400
2023-03-13T11:14:32.536Z,400
2023-03-13T11:16:32.778Z,400
2023-03-13T11:17:32.536Z,400
2023-03-13T11:18:32.443Z,400
2023-03-13T11:19:32.461Z,400
2023-03-13T11:21:32.729Z,400
2023-03-13T11:22:32.451Z,400
2023-03-13T11:23:32.443Z,400
2023-03-13T11:24:32.446Z,400
2023-03-13T11:26:32.734Z,400
2023-03-13T11:27:32.583Z,400
2023-03-13T11:28:32.442Z,400
2023-03-13T11:29:32.471Z,400
2023-03-13T11:31:32.812Z,400
2023-03-13T11:32:32.481Z,400
2023-03-13T11:33:32.445Z,420
2023-03-13T11:34:32.476Z,406
2023-03-13T11:36:32.738Z,452
2023-03-13T11:37:32.445Z,400
2023-03-13T11:38:32.444Z,400
2023-03-13T11:39:32.449Z,496
2023-03-13T11:41:32.753Z,490
2023-03-13T11:42:32.468Z,515
2023-03-13T11:43:32.421Z,503
2023-03-13T11:44:32.428Z,453
2023-03-13T11:46:32.859Z,400
2023-03-13T11:47:32.435Z,531
2023-03-13T11:48:32.447Z,531
2023-03-13T11:49:32.455Z,540
2023-03-13T11:51:32.847Z,549
2023-03-13T11:52:32.562Z,596
2023-03-13T11:53:32.453Z,465
2023-03-13T11:54:32.436Z,459
2023-03-13T11:56:32.759Z,437
2023-03-13T11:57:32.486Z,593
2023-03-13T11:58:32.452Z,584
2023-03-13T11:59:32.483Z,613
2023-03-13T12:01:32.730Z,617
2023-03-13T12:02:32.480Z,571
2023-03-13T12:03:32.434Z,611
2023-03-13T12:04:32.567Z,627
2023-03-13T12:06:32.740Z,638
2023-03-13T12:07:32.613Z,496
2023-03-13T12:08:32.495Z,626
2023-03-13T12:09:32.568Z,656
2023-03-13T12:11:32.771Z,679
2023-03-13T12:12:32.557Z,621
2023-03-13T12:13:32.537Z,575
2023-03-13T12:14:32.454Z,575
2023-03-13T12:16:32.850Z,612
2023-03-13T12:17:32.514Z,619
2023-03-13T12:18:32.479Z,603
2023-03-13T12:19:32.487Z,470
2023-03-13T12:21:32.822Z,493
2023-03-13T12:22:32.438Z,606
2023-03-13T12:23:32.533Z,597
2023-03-13T12:24:32.472Z,795
2023-03-13T12:26:32.769Z,565
2023-03-13T12:27:32.592Z,591
2023-03-13T12:28:32.638Z,621
2023-03-13T12:29:32.472Z,606
2023-03-13T12:31:32.746Z,639
2023-03-13T12:32:32.483Z,673
2023-03-13T12:33:32.458Z,649
2023-03-13T12:34:32.453Z,683
2023-03-13T12:36:32.773Z,563
2023-03-13T12:37:32.599Z,493
2023-03-13T12:38:32.576Z,552
2023-03-13T12:39:32.515Z,702
2023-03-13T12:41:32.754Z,581
2023-03-13T12:42:32.583Z,702
2023-03-13T12:43:32.472Z,632
2023-03-13T12:44:32.584Z,639
2023-03-13T12:46:32.775Z,552
2023-03-13T12:47:32.492Z,726
2023-03-13T12:48:32.653Z,714
2023-03-13T12:49:32.486Z,692
2023-03-13T12:51:32.759Z,787
2023-03-13T12:52:32.494Z,590
2023-03-13T12:53:32.499Z,785
2023-03-13T12:54:32.474Z,767
2023-03-13T12:56:32.845Z,747
2023-03-13T12:57:32.523Z,715
2023-03-13T12:58:32.498Z,736
2023-03-13T12:59:32.494Z,778
2023-03-13T13:01:32.865Z,904
2023-03-13T13:02:32.504Z,633
2023-03-13T13:03:32.605Z,400
2023-03-13T13:04:32.501Z,673
2023-03-13T13:06:32.760Z,619
2023-03-13T13:07:32.473Z,640
2023-03-13T13:08:32.464Z,836
2023-03-13T13:09:32.507Z,640
2023-03-13T13:11:32.764Z,632
2023-03-13T13:12:32.641Z,718
2023-03-13T13:13:32.502Z,707
2023-03-13T13:14:32.502Z,701
2023-03-13T13:16:32.763Z,624
2023-03-13T13:17:32.630Z,422
2023-03-13T13:18:32.600Z,542
2023-03-13T13:19:32.477Z,729
2023-03-13T13:21:32.783Z,681
2023-03-13T13:22:32.542Z,715
2023-03-13T13:23:32.482Z,750
2023-03-13T13:24:32.505Z,787
2023-03-13T13:26:32.802Z,729
2023-03-13T13:27:32.490Z,764
2023-03-13T13:28:32.519Z,692
2023-03-13T13:29:32.515Z,714
2023-03-13T13:31:32.938Z,546
2023-03-13T13:32:32.670Z,564
2023-03-13T13:33:32.606Z,697
2023-03-13T13:34:32.513Z,730
2023-03-13T13:36:32.797Z,568
2023-03-13T13:37:32.650Z,617
2023-03-13T13:38:32.655Z,803
2023-03-13T13:39:32.628Z,803
2023-03-13T13:41:32.870Z,673
2023-03-13T13:42:32.601Z,747
2023-03-13T13:43:32.638Z,753
2023-03-13T13:44:32.631Z,753
2023-03-13T13:46:32.877Z,640
2023-03-13T13:47:33.588Z,676
2023-03-13T13:48:32.545Z,676
2023-03-13T13:49:32.637Z,676
2023-03-13T13:51:32.824Z,676
2023-03-13T13:52:32.530Z,640
2023-03-13T13:53:32.632Z,640
2023-03-13T13:54:32.518Z,640
2023-03-13T13:56:32.865Z,640
2023-03-13T13:57:32.529Z,630
2023-03-13T13:58:32.485Z,630
2023-03-13T13:59:32.535Z,630
2023-03-13T14:01:33.010Z,630
2023-03-13T14:02:32.580Z,665
2023-03-13T14:03:32.552Z,665
2023-03-13T14:04:32.619Z,665
2023-03-13T14:06:32.884Z,665
2023-03-13T14:07:32.510Z,643
2023-03-13T14:08:32.631Z,643
2023-03-13T14:09:32.497Z,643
2023-03-13T14:11:32.827Z,643
2023-03-13T14:12:32.550Z,620
2023-03-13T14:13:32.603Z,620
2023-03-13T14:14:32.735Z,620
2023-03-13T14:16:32.914Z,620
2023-03-13T14:17:32.662Z,676
2023-03-13T14:18:32.655Z,676
2023-03-13T14:19:32.524Z,676
2023-03-13T14:21:32.809Z,676
2023-03-13T14:22:32.603Z,793
2023-03-13T14:23:32.620Z,793
2023-03-13T14:24:33.576Z,793
2023-03-13T14:26:32.805Z,793
2023-03-13T14:27:32.531Z,778
2023-03-13T14:28:32.533Z,778
2023-03-13T14:29:32.547Z,778
2023-03-13T14:31:32.982Z,778
2023-03-13T14:32:32.707Z,767
2023-03-13T14:33:32.521Z,767
2023-03-13T14:34:32.906Z,767
2023-03-13T14:36:32.826Z,767
2023-03-13T14:37:32.519Z,805
2023-03-13T14:38:32.522Z,805
2023-03-13T14:39:32.530Z,805
2023-03-13T14:41:32.823Z,805
2023-03-13T14:42:32.633Z,815
2023-03-13T14:43:32.544Z,815
2023-03-13T14:44:32.544Z,815
2023-03-13T14:46:32.837Z,815
2023-03-13T14:47:32.520Z,815
2023-03-13T14:48:32.551Z,815
2023-03-13T14:49:32.611Z,815
2023-03-13T14:51:32.860Z,815
2023-03-13T14:52:32.563Z,828
2023-03-13T14:53:32.514Z,828
2023-03-13T14:54:32.546Z,828
2023-03-13T14:56:32.869Z,828
2023-03-13T14:57:32.561Z,815
2023-03-13T14:58:32.525Z,815
2023-03-13T14:59:32.553Z,815
2023-03-13T15:01:32.825Z,815
2023-03-13T15:02:32.546Z,815
2023-03-13T15:03:32.542Z,815
2023-03-13T15:04:32.647Z,815
2023-03-13T15:06:32.816Z,815
2023-03-13T15:07:32.644Z,858
2023-03-13T15:08:32.633Z,858
2023-03-13T15:09:32.550Z,858
2023-03-13T15:11:32.846Z,858
2023-03-13T15:12:32.648Z,803
2023-03-13T15:13:32.734Z,803
2023-03-13T15:14:32.533Z,803
2023-03-13T15:16:32.856Z,803
2023-03-13T15:17:32.638Z,767
2023-03-13T15:18:32.656Z,767
2023-03-13T15:19:32.566Z,767
2023-03-13T15:21:32.827Z,767
2023-03-13T15:22:32.712Z,739
2023-03-13T15:23:32.561Z,739
2023-03-13T15:24:32.542Z,739
2023-03-13T15:26:32.859Z,739
2023-03-13T15:27:32.658Z,755
2023-03-13T15:28:32.532Z,755
2023-03-13T15:29:32.634Z,755
2023-03-13T15:31:32.923Z,755
2023-03-13T15:32:32.705Z,839
2023-03-13T15:33:32.564Z,839
2023-03-13T15:34:32.665Z,839
2023-03-13T15:36:32.898Z,839
2023-03-13T15:37:32.553Z,828
2023-03-13T15:38:32.655Z,828
2023-03-13T15:39:32.539Z,828
2023-03-13T15:41:32.881Z,828
2023-03-13T15:42:32.700Z,873
2023-03-13T15:43:32.685Z,873
2023-03-13T15:44:32.544Z,873
2023-03-13T15:46:32.923Z,873
2023-03-13T15:47:32.655Z,778
2023-03-13T15:48:32.674Z,778
2023-03-13T15:49:32.793Z,778
2023-03-13T15:51:32.891Z,778
2023-03-13T15:54:14.899Z,793
2023-03-13T15:55:15.036Z,793
2023-03-13T15:56:14.960Z,793
2023-03-13T15:58:15.123Z,793
2023-03-13T15:59:14.874Z,839
2023-03-13T16:00:14.927Z,839
2023-03-13T16:01:14.988Z,839
2023-03-13T16:03:15.044Z,839
2023-03-13T16:04:14.964Z,815
2023-03-13T16:05:14.873Z,815
2023-03-13T16:06:14.868Z,815
2023-03-13T16:08:23.173Z,815
2023-03-13T16:09:14.929Z,828
2023-03-13T16:10:14.996Z,828
2023-03-13T16:11:14.922Z,828
2023-03-13T16:13:15.121Z,828
2023-03-13T16:14:14.894Z,815
2023-03-13T16:15:14.909Z,815
2023-03-13T16:16:15.081Z,815
2023-03-13T16:18:15.056Z,815
2023-03-13T16:19:14.960Z,839
2023-03-13T16:20:14.950Z,839
2023-03-13T16:21:14.874Z,839
2023-03-13T16:23:15.139Z,839
2023-03-13T16:24:14.931Z,858
2023-03-13T16:25:15.789Z,858
2023-03-13T16:26:14.937Z,858
2023-03-13T16:28:15.068Z,858
2023-03-13T16:29:14.953Z,887
2023-03-13T16:30:14.886Z,887
2023-03-13T16:31:14.984Z,887
2023-03-13T16:33:15.059Z,887
2023-03-13T16:34:14.881Z,887
2023-03-13T16:35:14.908Z,887
2023-03-13T16:36:14.948Z,887
2023-03-13T16:38:15.067Z,887
2023-03-13T16:39:14.895Z,858
2023-03-13T16:40:15.550Z,858
2023-03-13T16:41:14.871Z,858
2023-03-13T16:43:15.065Z,858
2023-03-13T16:44:14.912Z,858
2023-03-13T16:45:14.900Z,858
2023-03-13T16:46:14.905Z,858
2023-03-13T16:48:15.065Z,858
2023-03-13T16:49:14.907Z,887
2023-03-13T16:50:14.988Z,887
2023-03-13T16:51:14.911Z,887
2023-03-13T16:53:15.098Z,887
2023-03-13T16:54:14.915Z,873
2023-03-13T16:55:14.899Z,873
2023-03-13T16:56:14.895Z,873
2023-03-13T16:58:15.094Z,873
2023-03-13T16:59:14.898Z,839
2023-03-13T17:00:14.932Z,839
2023-03-13T17:01:14.945Z,839
2023-03-13T17:03:15.092Z,839
2023-03-13T17:04:14.953Z,873
2023-03-13T17:05:14.895Z,873
2023-03-13T17:06:14.933Z,873
2023-03-13T17:08:15.085Z,873
2023-03-13T17:09:14.906Z,887
2023-03-13T17:10:14.935Z,887
2023-03-13T17:11:15.026Z,887
2023-03-13T17:13:15.104Z,887
2023-03-13T17:14:14.920Z,858
2023-03-13T17:15:14.939Z,858